createdAt,value
2023-01-10T00:02:18.502Z,3.33
2023-01-10T00:04:44.885Z,2.67
2023-01-10T00:07:11.230Z,2.10
2023-01-10T00:09:37.704Z,3.47
2023-01-10T00:12:22.987Z,2.75
2023-01-10T00:14:49.278Z,3.25
2023-01-10T00:17:15.571Z,1.58
2023-01-10T00:19:42.101Z,4.95
2023-01-10T00:22:09.161Z,2.05
2023-01-10T00:24:35.466Z,2.80
2023-01-10T00:27:02.923Z,2.17
2023-01-10T00:29:35.517Z,2.15
2023-01-10T00:32:01.991Z,4.38
2023-01-10T00:34:28.359Z,3.72
2023-01-10T00:36:54.685Z,3.78
2023-01-10T00:39:21.126Z,2.20
2023-01-10T00:42:06.191Z,4.78
2023-01-10T00:44:32.599Z,1.85
2023-01-10T00:46:58.890Z,2.97
2023-01-10T00:49:25.203Z,2.72
2023-01-10T00:51:51.595Z,4.82
2023-01-10T00:54:17.935Z,4.80
2023-01-10T00:56:44.261Z,7.07
2023-01-10T00:59:10.621Z,3.00
2023-01-10T01:01:37.127Z,3.35
2023-01-10T01:04:03.552Z,2.08
2023-01-10T01:06:29.923Z,3.42
2023-01-10T01:08:56.265Z,6.38
2023-01-10T01:11:22.624Z,3.83
2023-01-10T01:13:48.972Z,4.93
2023-01-10T01:16:15.700Z,3.30
2023-01-10T01:18:42.056Z,3.30
2023-01-10T01:21:08.526Z,5.55
2023-01-10T01:23:35.782Z,5.10
2023-01-10T01:26:02.650Z,4.15
2023-01-10T01:28:28.989Z,3.90
2023-01-10T01:30:55.383Z,3.28
2023-01-10T01:33:21.827Z,3.10
2023-01-10T01:35:49.395Z,4.20
2023-01-10T01:38:16.774Z,4.53
2023-01-10T01:40:43.365Z,4.78
2023-01-10T01:43:21.247Z,4.00
2023-01-10T01:45:47.640Z,4.82
2023-01-10T01:48:39.691Z,6.32
2023-01-10T01:51:17.766Z,6.32
2023-01-10T01:53:48.688Z,5.55
2023-01-10T01:56:20.731Z,2.53
2023-01-10T01:59:02.424Z,4.75
2023-01-10T02:01:31.093Z,4.55
2023-01-10T02:04:09.650Z,6.25
2023-01-10T02:06:36.204Z,3.83
2023-01-10T02:09:15.931Z,6.38
2023-01-10T02:11:42.304Z,4.55
2023-01-10T02:14:11.825Z,4.25
2023-01-10T02:16:38.177Z,6.50
2023-01-10T02:19:12.308Z,6.13
2023-01-10T02:22:03.621Z,6.43
2023-01-10T02:24:36.101Z,4.53
2023-01-10T02:27:20.204Z,6.63
2023-01-10T02:30:09.009Z,7.65
2023-01-10T02:32:57.027Z,6.55
2023-01-10T02:35:37.254Z,4.68
2023-01-10T02:38:25.430Z,7.93
2023-01-10T02:41:15.424Z,7.32
2023-01-10T02:43:49.191Z,3.47
2023-01-10T02:46:24.858Z,5.97
2023-01-10T02:48:55.338Z,9.02
2023-01-10T02:51:24.415Z,7.22
2023-01-10T02:54:01.786Z,6.90
2023-01-10T02:57:00.068Z,8.00
2023-01-10T02:59:45.257Z,8.55
2023-01-10T03:02:45.218Z,5.45
2023-01-10T03:05:36.047Z,10.15
2023-01-10T03:08:23.907Z,7.55
2023-01-10T03:11:07.865Z,6.95
2023-01-10T03:13:46.158Z,7.03
2023-01-10T03:16:24.723Z,11.43
2023-01-10T03:18:56.455Z,4.55
2023-01-10T03:21:26.219Z,9.57
2023-01-10T03:23:57.079Z,7.97
2023-01-10T03:26:47.243Z,8.95
2023-01-10T03:29:19.454Z,7.28
2023-01-10T03:31:51.853Z,8.40
2023-01-10T03:34:18.321Z,5.38
2023-01-10T03:37:17.906Z,8.32
2023-01-10T03:40:16.282Z,5.85
2023-01-10T03:43:12.095Z,9.45
2023-01-10T03:45:44.811Z,7.20
2023-01-10T03:48:12.973Z,7.18
2023-01-10T03:50:41.312Z,7.13
2023-01-10T03:53:07.848Z,10.77
2023-01-10T03:55:35.731Z,19.05
2023-01-10T03:58:02.109Z,12.45
2023-01-10T04:00:28.483Z,13.02
2023-01-10T04:02:55.646Z,10.07
2023-01-10T04:05:22.009Z,10.27
2023-01-10T04:07:49.074Z,7.43
2023-01-10T04:10:16.391Z,9.07
2023-01-10T04:12:43.022Z,14.20
2023-01-10T04:15:10.055Z,11.95
2023-01-10T04:17:36.391Z,8.20
2023-01-10T04:20:03.062Z,13.40
2023-01-10T04:22:29.369Z,7.70
2023-01-10T04:24:55.687Z,10.75
2023-01-10T04:27:22.228Z,12.73
2023-01-10T04:29:48.651Z,16.58
2023-01-10T04:32:15.049Z,16.98
2023-01-10T04:34:41.424Z,8.20
2023-01-10T04:37:07.851Z,14.70
2023-01-10T04:39:34.166Z,7.35
2023-01-10T04:42:00.533Z,10.85
2023-01-10T04:44:26.902Z,10.77
2023-01-10T04:46:53.222Z,12.35
2023-01-10T04:49:19.604Z,13.32
2023-01-10T04:51:45.930Z,11.02
2023-01-10T04:54:12.264Z,9.50
2023-01-10T04:56:38.777Z,10.63
2023-01-10T04:59:06.446Z,11.57
2023-01-10T05:01:33.803Z,8.85
2023-01-10T05:04:00.185Z,13.80
2023-01-10T05:06:26.523Z,11.88
2023-01-10T05:08:52.909Z,9.65
2023-01-10T05:11:19.232Z,17.52
2023-01-10T05:13:47.946Z,10.88
2023-01-10T05:16:14.507Z,10.05
2023-01-10T05:18:40.849Z,15.93
2023-01-10T05:21:10.333Z,8.85
2023-01-10T05:23:37.459Z,12.85
2023-01-10T05:26:16.189Z,12.77
2023-01-10T05:28:42.909Z,8.02
2023-01-10T05:31:12.421Z,12.63
2023-01-10T05:33:39.164Z,10.77
2023-01-10T05:36:06.749Z,6.07
2023-01-10T05:38:33.354Z,12.88
2023-01-10T05:41:00.633Z,8.65
2023-01-10T05:43:28.099Z,13.48
2023-01-10T05:45:54.566Z,11.18
2023-01-10T05:48:20.938Z,11.25
2023-01-10T05:50:51.943Z,9.05
2023-01-10T05:53:19.151Z,8.82
2023-01-10T05:55:56.415Z,10.52
2023-01-10T05:58:23.422Z,14.82
2023-01-10T06:00:49.793Z,13.48
2023-01-10T06:03:16.485Z,16.90
2023-01-10T06:05:42.889Z,9.82
2023-01-10T06:08:09.546Z,18.60
2023-01-10T06:10:35.969Z,11.07
2023-01-10T06:13:02.282Z,14.13
2023-01-10T06:15:28.577Z,16.27
2023-01-10T06:17:54.925Z,16.58
2023-01-10T06:20:21.240Z,15.07
2023-01-10T06:22:47.552Z,15.68
2023-01-10T06:25:14.417Z,15.32
2023-01-10T06:27:42.146Z,19.63
2023-01-10T06:30:10.583Z,17.38
2023-01-10T06:32:37.149Z,13.82
2023-01-10T06:35:04.829Z,15.63
2023-01-10T06:37:31.235Z,10.05
2023-01-10T06:39:57.620Z,17.02
2023-01-10T06:42:24.072Z,13.52
2023-01-10T06:44:50.416Z,18.30
2023-01-10T06:47:16.753Z,13.43
2023-01-10T06:49:43.032Z,15.00
2023-01-10T06:52:09.370Z,17.38
2023-01-10T06:54:35.671Z,7.90
2023-01-10T06:57:02.055Z,13.63
2023-01-10T06:59:28.360Z,14.88
2023-01-10T07:01:54.773Z,8.55
2023-01-10T07:04:21.115Z,19.77
2023-01-10T07:06:47.498Z,15.77
2023-01-10T07:09:13.848Z,13.25
2023-01-10T07:11:40.199Z,13.93
2023-01-10T07:14:06.597Z,18.35
2023-01-10T07:16:32.922Z,17.42
2023-01-10T07:18:59.612Z,16.20
2023-01-10T07:21:25.911Z,10.65
2023-01-10T07:23:52.330Z,14.85
2023-01-10T07:26:19.726Z,15.85
2023-01-10T07:28:51.949Z,17.73
2023-01-10T07:31:19.964Z,12.13
2023-01-10T07:33:46.441Z,14.48
2023-01-10T07:36:12.750Z,13.57
2023-01-10T07:38:39.431Z,14.23
2023-01-10T07:41:06.222Z,13.68
2023-01-10T07:43:33.169Z,12.07
2023-01-10T07:46:00.689Z,10.70
2023-01-10T07:48:27.173Z,17.33
2023-01-10T07:50:57.628Z,15.93
2023-01-10T07:53:24.681Z,19.17
2023-01-10T07:55:51.173Z,21.77
2023-01-10T07:58:17.516Z,37.33
2023-01-10T08:00:43.942Z,42.95
2023-01-10T08:03:11.125Z,41.47
2023-01-10T08:05:37.523Z,40.85
2023-01-10T08:08:09.326Z,29.70
2023-01-10T08:10:37.136Z,35.58
2023-01-10T08:13:17.190Z,27.65
2023-01-10T08:15:45.447Z,37.40
2023-01-10T08:18:11.799Z,28.85
2023-01-10T08:20:38.652Z,24.63
2023-01-10T08:23:04.960Z,35.97
2023-01-10T08:25:31.275Z,33.03
2023-01-10T08:27:57.608Z,24.55
2023-01-10T08:30:23.940Z,32.55
2023-01-10T08:32:52.124Z,31.00
2023-01-10T08:35:18.514Z,27.63
2023-01-10T08:37:44.801Z,19.05
2023-01-10T08:40:11.496Z,19.02
2023-01-10T08:42:38.219Z,24.38
2023-01-10T08:45:05.133Z,15.32
2023-01-10T08:47:31.511Z,16.27
2023-01-10T08:49:57.797Z,21.40
2023-01-10T08:52:24.160Z,22.08
2023-01-10T08:54:50.538Z,18.48
2023-01-10T08:57:16.826Z,13.32
2023-01-10T08:59:43.232Z,18.33
2023-01-10T09:02:13.437Z,18.70
2023-01-10T09:04:39.902Z,18.03
2023-01-10T09:07:06.270Z,21.63
2023-01-10T09:09:32.557Z,11.60
2023-01-10T09:11:58.877Z,19.25
2023-01-10T09:14:25.217Z,11.93
2023-01-10T09:16:52.314Z,15.35
2023-01-10T09:19:18.794Z,13.30
2023-01-10T09:21:45.103Z,11.55
2023-01-10T09:24:11.491Z,15.65
2023-01-10T09:26:37.854Z,12.75
2023-01-10T09:29:04.138Z,20.73
2023-01-10T09:31:30.473Z,18.45
2023-01-10T09:33:56.827Z,20.17
2023-01-10T09:36:23.106Z,13.73
2023-01-10T09:38:49.424Z,15.05
2023-01-10T09:41:51.274Z,13.70
2023-01-10T09:44:44.838Z,21.25
2023-01-10T09:47:33.415Z,14.45
2023-01-10T09:50:18.502Z,19.02
2023-01-10T09:52:51.879Z,56.08
2023-01-10T09:55:30.005Z,42.80
2023-01-10T09:58:01.606Z,39.22
2023-01-10T10:00:41.919Z,40.10
2023-01-10T10:03:41.450Z,31.98
2023-01-10T10:06:12.826Z,57.70
2023-01-10T10:08:41.533Z,63.67
2023-01-10T10:11:37.598Z,48.83
2023-01-10T10:14:25.139Z,40.50
2023-01-10T10:17:29.167Z,25.08
2023-01-10T10:20:23.652Z,28.52
2023-01-10T10:23:08.897Z,25.88
2023-01-10T10:26:09.055Z,22.30
2023-01-10T10:29:03.648Z,12.23
2023-01-10T10:31:32.848Z,21.00
2023-01-10T10:34:13.840Z,21.23
2023-01-10T10:36:50.616Z,26.17
2023-01-10T10:39:22.137Z,15.35
2023-01-10T10:41:53.010Z,20.35
2023-01-10T10:44:45.035Z,15.63
2023-01-10T10:47:16.909Z,19.80
2023-01-10T10:49:59.562Z,15.63
2023-01-10T10:52:31.376Z,18.10
2023-01-10T10:54:58.707Z,14.23
2023-01-10T10:57:28.499Z,20.05
2023-01-10T10:59:56.475Z,18.23
2023-01-10T11:02:30.391Z,15.73
2023-01-10T11:05:00.658Z,15.95
2023-01-10T11:07:33.781Z,17.73
2023-01-10T11:10:02.178Z,23.45
2023-01-10T11:12:34.657Z,16.02
2023-01-10T11:15:02.468Z,13.18
2023-01-10T11:17:31.540Z,14.50
2023-01-10T11:20:17.291Z,18.83
2023-01-10T11:22:53.129Z,13.80
2023-01-10T11:25:21.705Z,19.33
2023-01-10T11:27:48.297Z,12.90
2023-01-10T11:30:24.584Z,13.55
2023-01-10T11:33:07.521Z,18.33
2023-01-10T11:35:36.996Z,17.65
2023-01-10T11:38:07.270Z,14.88
2023-01-10T11:40:37.629Z,21.30
2023-01-10T11:43:25.659Z,18.53
2023-01-10T11:45:56.159Z,18.55
2023-01-10T11:48:48.233Z,29.52
2023-01-10T11:51:19.411Z,24.52
2023-01-10T11:53:47.223Z,21.35
2023-01-10T11:56:23.815Z,15.77
2023-01-10T11:58:50.360Z,20.00
2023-01-10T12:01:29.937Z,19.02
2023-01-10T12:03:56.881Z,18.33
2023-01-10T12:06:23.880Z,13.90
2023-01-10T12:08:51.146Z,18.10
2023-01-10T12:11:17.411Z,15.65
2023-01-10T12:13:51.319Z,18.23
2023-01-10T12:16:31.722Z,19.35
2023-01-10T12:19:00.923Z,17.00
2023-01-10T12:21:34.663Z,19.75
2023-01-10T12:24:07.253Z,14.98
2023-01-10T12:26:34.744Z,21.27
2023-01-10T12:29:11.470Z,17.92
2023-01-10T12:31:40.332Z,23.02
2023-01-10T12:34:12.807Z,18.80
2023-01-10T12:36:51.776Z,19.20
2023-01-10T12:39:23.392Z,20.10
2023-01-10T12:42:32.648Z,27.88
2023-01-10T12:45:22.293Z,27.70
2023-01-10T12:48:02.519Z,20.13
2023-01-10T12:50:35.448Z,24.00
2023-01-10T12:53:23.320Z,24.73
2023-01-10T12:55:53.373Z,25.92
2023-01-10T12:58:34.219Z,25.88
2023-01-10T13:01:02.154Z,23.10
2023-01-10T13:03:33.419Z,18.95
2023-01-10T13:06:00.975Z,18.40
2023-01-10T13:08:31.882Z,20.25
2023-01-10T13:11:00.044Z,15.40
2023-01-10T13:13:37.811Z,15.90
2023-01-10T13:16:42.403Z,19.67
2023-01-10T13:19:11.867Z,17.20
2023-01-10T13:21:41.004Z,21.58
2023-01-10T13:24:22.228Z,20.83
2023-01-10T13:29:27.610Z,55.50
2023-01-10T13:32:00.401Z,120.68
2023-01-10T13:34:33.385Z,55.35
2023-01-10T13:37:04.340Z,18.88
2023-01-10T13:39:36.392Z,40.85
2023-01-10T13:42:21.575Z,35.03
2023-01-10T13:45:11.636Z,17.98
2023-01-10T13:47:40.772Z,20.40
2023-01-10T13:50:22.284Z,22.30
2023-01-10T13:52:49.867Z,12.80
2023-01-10T13:55:39.516Z,19.25
2023-01-10T13:58:11.852Z,18.13
2023-01-10T14:00:56.907Z,13.70
2023-01-10T14:03:51.067Z,17.35
2023-01-10T14:06:29.566Z,22.90
2023-01-10T14:08:57.096Z,22.10
2023-01-10T14:11:29.311Z,12.25
2023-01-10T14:13:58.944Z,17.15
2023-01-10T14:16:37.651Z,17.38
2023-01-10T14:19:19.250Z,17.35
2023-01-10T14:21:45.809Z,19.65
2023-01-10T14:24:25.366Z,16.13
2023-01-10T14:26:57.188Z,14.88
2023-01-10T14:29:28.217Z,19.17
2023-01-10T14:31:55.922Z,16.13
2023-01-10T14:34:27.089Z,12.95
2023-01-10T14:39:29.009Z,18.23
2023-01-10T14:42:02.539Z,16.20
2023-01-10T14:44:34.969Z,17.90
2023-01-10T14:47:04.253Z,12.30
2023-01-10T14:49:35.324Z,17.75
2023-01-10T14:52:21.837Z,15.95
2023-01-10T14:55:10.369Z,22.30
2023-01-10T14:57:36.714Z,16.95
2023-01-10T15:00:09.199Z,13.75
2023-01-10T15:02:37.958Z,23.63
2023-01-10T15:05:25.972Z,24.65
2023-01-10T15:07:53.716Z,16.63
2023-01-10T15:10:31.441Z,18.23
2023-01-10T15:13:01.684Z,20.95
2023-01-10T15:15:33.895Z,19.90
2023-01-10T15:18:03.351Z,12.23
2023-01-10T15:20:30.058Z,17.75
2023-01-10T15:22:59.128Z,18.92
2023-01-10T15:25:38.304Z,23.08
2023-01-10T15:28:13.375Z,15.98
2023-01-10T15:30:41.884Z,25.02
2023-01-10T15:33:23.130Z,20.20
2023-01-10T15:38:20.977Z,18.77
2023-01-10T15:40:57.379Z,20.13
2023-01-10T15:43:25.868Z,25.85
2023-01-10T15:45:55.682Z,17.00
2023-01-10T15:48:35.826Z,20.38
2023-01-10T15:51:26.717Z,18.58
2023-01-10T15:54:06.973Z,23.63
2023-01-10T15:56:37.816Z,20.43
2023-01-10T15:59:06.393Z,20.15
2023-01-10T16:01:34.173Z,12.82
2023-01-10T16:04:04.389Z,18.75
2023-01-10T16:06:36.420Z,20.35
2023-01-10T16:09:08.355Z,19.88
2023-01-10T16:12:10.041Z,23.30
2023-01-10T16:14:37.742Z,24.75
2023-01-10T16:17:05.112Z,19.83
2023-01-10T16:19:31.459Z,20.35
2023-01-10T16:21:59.463Z,29.95
2023-01-10T16:24:31.093Z,15.13
2023-01-10T16:27:00.359Z,19.33
2023-01-10T16:29:26.722Z,21.35
2023-01-10T16:31:53.430Z,20.27
2023-01-10T16:34:20.501Z,21.75
2023-01-10T16:36:46.834Z,27.55
2023-01-10T16:39:21.432Z,18.35
2023-01-10T16:42:06.751Z,16.95
2023-01-10T16:44:34.269Z,19.88
2023-01-10T16:47:01.083Z,14.63
2023-01-10T16:49:27.454Z,18.00
2023-01-10T16:51:55.145Z,19.20
2023-01-10T16:54:22.887Z,24.13
2023-01-10T16:56:49.580Z,23.50
2023-01-10T16:59:17.980Z,33.92
2023-01-10T17:01:49.615Z,16.92
2023-01-10T17:04:21.768Z,23.63
2023-01-10T17:06:48.544Z,21.60
2023-01-10T17:09:23.595Z,14.85
2023-01-10T17:11:56.442Z,20.55
2023-01-10T17:14:23.115Z,25.50
2023-01-10T17:16:50.071Z,31.83
2023-01-10T17:19:16.525Z,35.67
2023-01-10T17:21:42.863Z,24.75
2023-01-10T17:24:10.398Z,19.92
2023-01-10T17:26:37.031Z,20.95
2023-01-10T17:29:03.632Z,20.83
2023-01-10T17:31:30.301Z,24.70
2023-01-10T17:33:57.117Z,21.73
2023-01-10T17:36:28.444Z,23.48
2023-01-10T17:38:54.945Z,18.95
2023-01-10T17:41:21.258Z,27.13
2023-01-10T17:43:47.764Z,21.58
2023-01-10T17:46:16.462Z,23.40
2023-01-10T17:48:42.857Z,18.92
2023-01-10T17:51:10.210Z,16.17
2023-01-10T17:53:36.545Z,15.65
2023-01-10T17:56:05.369Z,17.67
2023-01-10T17:58:31.764Z,24.17
2023-01-10T18:00:58.244Z,18.27
2023-01-10T18:03:24.773Z,24.17
2023-01-10T18:05:52.943Z,15.25
2023-01-10T18:08:20.405Z,16.38
2023-01-10T18:10:47.477Z,17.95
2023-01-10T18:13:15.191Z,13.48
2023-01-10T18:15:44.295Z,18.52
2023-01-10T18:18:10.758Z,13.48
2023-01-10T18:20:41.747Z,14.52
2023-01-10T18:23:21.170Z,17.92
2023-01-10T18:26:05.647Z,22.23
2023-01-10T18:28:41.853Z,18.50
2023-01-10T18:31:11.667Z,14.00
2023-01-10T18:33:38.156Z,15.45
2023-01-10T18:36:05.914Z,21.30
2023-01-10T18:38:33.576Z,13.02
2023-01-10T18:40:59.882Z,14.98
2023-01-10T18:43:26.352Z,16.55
2023-01-10T18:46:07.421Z,20.83
2023-01-10T18:48:33.975Z,11.75
2023-01-10T18:51:01.878Z,16.98
2023-01-10T18:53:28.589Z,18.60
2023-01-10T18:55:56.636Z,15.80
2023-01-10T18:58:27.640Z,14.40
2023-01-10T19:00:54.498Z,17.27
2023-01-10T19:03:22.845Z,18.77
2023-01-10T19:05:49.358Z,15.70
2023-01-10T19:08:16.045Z,19.92
2023-01-10T19:11:03.621Z,16.15
2023-01-10T19:13:29.905Z,16.80
2023-01-10T19:16:08.284Z,17.20
2023-01-10T19:18:34.786Z,16.70
2023-01-10T19:21:01.139Z,21.85
2023-01-10T19:23:27.448Z,11.85
2023-01-10T19:25:57.903Z,17.38
2023-01-10T19:28:24.457Z,13.52
2023-01-10T19:31:03.531Z,14.70
2023-01-10T19:33:32.605Z,20.83
2023-01-10T19:35:58.915Z,17.38
2023-01-10T19:38:25.217Z,13.40
2023-01-10T19:40:52.751Z,14.48
2023-01-10T19:43:19.625Z,17.25
2023-01-10T19:45:45.987Z,12.13
2023-01-10T19:48:12.303Z,16.30
2023-01-10T19:50:38.672Z,16.15
2023-01-10T19:53:04.998Z,13.73
2023-01-10T19:55:32.451Z,17.27
2023-01-10T19:58:00.017Z,19.65
2023-01-10T20:00:26.385Z,14.93
2023-01-10T20:02:52.810Z,14.95
2023-01-10T20:05:19.221Z,18.52
2023-01-10T20:07:49.892Z,12.23
2023-01-10T20:10:16.679Z,18.77
2023-01-10T20:12:43.283Z,16.33
2023-01-10T20:15:10.659Z,16.63
2023-01-10T20:17:39.210Z,13.85
2023-01-10T20:20:05.984Z,10.98
2023-01-10T20:22:32.300Z,21.40
2023-01-10T20:24:58.663Z,18.33
2023-01-10T20:27:24.973Z,13.20
2023-01-10T20:29:51.272Z,12.35
2023-01-10T20:32:19.429Z,9.63
2023-01-10T20:34:47.313Z,11.02
2023-01-10T20:37:14.386Z,13.43
2023-01-10T20:39:40.897Z,13.05
2023-01-10T20:42:07.206Z,16.58
2023-01-10T20:44:33.602Z,14.60
2023-01-10T20:46:59.927Z,17.55
2023-01-10T20:49:26.399Z,8.77
2023-01-10T20:51:54.183Z,13.75
2023-01-10T20:54:20.578Z,10.38
2023-01-10T20:56:46.943Z,13.57
2023-01-10T20:59:13.286Z,12.18
2023-01-10T21:01:39.696Z,18.65
2023-01-10T21:04:07.379Z,17.38
2023-01-10T21:06:35.277Z,15.75
2023-01-10T21:09:02.132Z,14.07
2023-01-10T21:11:28.918Z,25.25
2023-01-10T21:13:55.250Z,26.08
2023-01-10T21:16:22.324Z,17.27
2023-01-10T21:18:49.114Z,17.00
2023-01-10T21:21:18.492Z,12.60
2023-01-10T21:23:44.923Z,13.88
2023-01-10T21:26:13.613Z,16.15
2023-01-10T21:28:42.678Z,22.05
2023-01-10T21:31:10.382Z,17.83
2023-01-10T21:33:37.180Z,21.15
2023-01-10T21:36:05.025Z,18.58
2023-01-10T21:38:32.875Z,24.05
2023-01-10T21:41:12.859Z,26.27
2023-01-10T21:43:44.010Z,37.03
2023-01-10T21:46:11.145Z,23.13
2023-01-10T21:48:37.461Z,12.45
2023-01-10T21:51:03.901Z,10.35
2023-01-10T21:53:30.209Z,22.70
2023-01-10T21:55:58.651Z,23.10
2023-01-10T21:58:25.012Z,25.67
2023-01-10T22:00:55.631Z,32.00
2023-01-10T22:03:22.079Z,30.40
2023-01-10T22:05:48.443Z,31.00
2023-01-10T22:08:14.738Z,28.05
2023-01-10T22:10:41.189Z,15.73
2023-01-10T22:13:07.497Z,10.02
2023-01-10T22:15:33.858Z,20.50
2023-01-10T22:18:01.157Z,14.90
2023-01-10T22:20:27.504Z,14.27
2023-01-10T22:22:53.867Z,11.68
2023-01-10T22:25:20.230Z,9.02
2023-01-10T22:27:46.561Z,11.55
2023-01-10T22:30:13.049Z,8.38
2023-01-10T22:32:39.365Z,4.80
2023-01-10T22:35:06.347Z,4.15
2023-01-10T22:37:33.706Z,3.05
2023-01-10T22:40:00.011Z,3.55
2023-01-10T22:42:27.063Z,4.20
2023-01-10T22:44:53.397Z,2.83
2023-01-10T22:47:19.728Z,2.90
2023-01-10T22:49:46.060Z,3.53
2023-01-10T22:52:12.461Z,1.77
2023-01-10T22:54:38.755Z,4.18
2023-01-10T22:57:05.073Z,6.47
2023-01-10T22:59:33.184Z,2.13
2023-01-10T23:01:59.547Z,5.47
2023-01-10T23:04:25.869Z,4.95
2023-01-10T23:06:52.280Z,3.47
2023-01-10T23:09:18.602Z,4.38
2023-01-10T23:11:44.905Z,2.75
2023-01-10T23:14:11.203Z,1.45
2023-01-10T23:16:37.664Z,3.50
2023-01-10T23:19:04.329Z,1.30
2023-01-10T23:21:30.628Z,1.45
2023-01-10T23:23:56.947Z,3.55
2023-01-10T23:26:23.578Z,2.90
2023-01-10T23:28:50.987Z,1.10
2023-01-10T23:31:20.023Z,1.90
2023-01-10T23:33:47.157Z,1.48
2023-01-10T23:36:13.793Z,0.98
2023-01-10T23:38:40.138Z,1.15
2023-01-10T23:41:06.744Z,1.83
2023-01-10T23:43:33.254Z,5.45
2023-01-10T23:46:00.418Z,1.05
2023-01-10T23:48:26.868Z,2.17
2023-01-10T23:50:53.216Z,2.42
2023-01-10T23:53:20.028Z,0.63
2023-01-10T23:55:46.604Z,0.85
2023-01-10T23:58:13.288Z,1.88
